Time;durP1;ratioP1;P1;durP2;ratioP2;P2;SDS_P1;SDS_P2;PMS_P1;PMS_P2;Temp;Humidity;BMP_temperature;BMP_pressure;BME280_temperature;BME280_humidity;BME280_pressure;Samples;Min_cycle;Max_cycle;Signal;HPM_P1;HPM_P2
2023/11/11 00:01:10;;;;;;;5.68;3.30;;;7.10;99.90;;;;;;6210966;23;20031;-87
2023/11/11 00:03:39;;;;;;;6.03;3.70;;;7.10;99.90;;;;;;6163276;23;20447;-87
2023/11/11 00:06:07;;;;;;;6.97;4.45;;;7.10;99.90;;;;;;6187987;23;20052;-87
2023/11/11 00:08:35;;;;;;;7.53;4.03;;;7.10;99.90;;;;;;6163142;23;20023;-87
2023/11/11 00:11:03;;;;;;;5.13;3.70;;;7.10;99.90;;;;;;6210926;23;20071;-86
2023/11/11 00:13:30;;;;;;;9.52;3.83;;;7.10;99.90;;;;;;6188217;23;20481;-86
2023/11/11 00:15:57;;;;;;;8.73;5.30;;;7.10;99.90;;;;;;6188279;23;20021;-85
2023/11/11 00:18:25;;;;;;;6.82;5.22;;;7.10;99.90;;;;;;6163201;23;20443;-87
2023/11/11 00:20:57;;;;;;;11.07;6.57;;;7.10;99.90;;;;;;6186568;23;20025;-86
2023/11/11 00:23:27;;;;;;;7.63;5.68;;;7.10;99.90;;;;;;6163576;23;20040;-87
2023/11/11 00:25:54;;;;;;;8.93;5.70;;;7.10;99.90;;;;;;6212833;23;20012;-86
2023/11/11 00:28:24;;;;;;;8.98;6.07;;;7.10;99.90;;;;;;6163841;23;20024;-87
2023/11/11 00:30:52;;;;;;;12.85;5.55;;;7.10;99.90;;;;;;6162155;23;20021;-86
2023/11/11 00:33:19;;;;;;;10.25;6.03;;;7.00;99.90;;;;;;6212045;23;20031;-86
2023/11/11 00:35:47;;;;;;;8.65;5.82;;;7.00;99.90;;;;;;6163810;23;20031;-86
2023/11/11 00:38:14;;;;;;;10.07;7.55;;;7.00;99.90;;;;;;6212326;23;20477;-85
2023/11/11 00:40:41;;;;;;;11.80;7.28;;;6.90;99.90;;;;;;6162853;23;20392;-86
2023/11/11 00:43:10;;;;;;;10.02;6.10;;;6.90;99.90;;;;;;6210601;23;20052;-86
2023/11/11 00:45:39;;;;;;;9.55;6.05;;;6.90;99.90;;;;;;6163354;23;20021;-86
2023/11/11 00:48:08;;;;;;;8.32;5.38;;;6.80;99.90;;;;;;6163644;23;20027;-86
2023/11/11 00:50:36;;;;;;;8.90;5.53;;;6.80;99.90;;;;;;6187609;23;20104;-86
2023/11/11 00:53:03;;;;;;;7.43;5.32;;;6.80;99.90;;;;;;6211310;23;20031;-86
2023/11/11 00:55:30;;;;;;;9.00;5.95;;;6.70;99.90;;;;;;6162830;23;20056;-86
2023/11/11 00:57:58;;;;;;;9.70;6.95;;;6.70;99.90;;;;;;6187671;23;20024;-86
2023/11/11 01:00:26;;;;;;;9.20;5.95;;;6.70;99.90;;;;;;6162811;23;20028;-86
2023/11/11 01:02:54;;;;;;;11.27;7.22;;;6.70;99.90;;;;;;6185523;23;20025;-86
2023/11/11 01:05:21;;;;;;;8.75;6.22;;;6.70;99.90;;;;;;6163350;23;20032;-87
2023/11/11 01:07:49;;;;;;;9.30;6.35;;;6.70;99.90;;;;;;6212505;23;20075;-86
2023/11/11 01:10:22;;;;;;;8.98;5.65;;;6.60;99.90;;;;;;6162701;23;20024;-87
2023/11/11 01:12:53;;;;;;;10.43;6.45;;;6.60;99.90;;;;;;6210885;23;20024;-87
2023/11/11 01:15:24;;;;;;;8.60;5.95;;;6.60;99.90;;;;;;6187838;23;20075;-87
2023/11/11 01:17:54;;;;;;;7.70;5.32;;;6.60;99.90;;;;;;6187961;23;20626;-86
2023/11/11 01:20:21;;;;;;;8.95;5.25;;;6.60;99.90;;;;;;6163037;23;20107;-86
2023/11/11 01:22:49;;;;;;;7.50;4.97;;;6.50;99.90;;;;;;6184976;23;20079;-87
2023/11/11 01:25:18;;;;;;;6.45;4.05;;;6.60;99.90;;;;;;6162606;23;20028;-87
2023/11/11 01:27:45;;;;;;;7.22;4.57;;;6.50;99.90;;;;;;6187250;23;20016;-86
2023/11/11 01:30:13;;;;;;;7.93;4.28;;;6.50;99.90;;;;;;6162574;23;20017;-86
2023/11/11 01:32:40;;;;;;;8.82;5.20;;;6.50;99.90;;;;;;6210217;23;20031;-87
2023/11/11 01:35:08;;;;;;;9.48;5.45;;;6.50;99.90;;;;;;6163164;23;20031;-86
2023/11/11 01:37:35;;;;;;;9.45;5.93;;;6.50;99.90;;;;;;6187415;23;20055;-86
2023/11/11 01:40:02;;;;;;;10.77;6.18;;;6.60;99.90;;;;;;6188664;23;20025;-86
2023/11/11 01:42:32;;;;;;;10.15;5.85;;;6.60;99.90;;;;;;6230240;23;20028;-85
2023/11/11 01:44:59;;;;;;;8.85;4.80;;;6.60;99.90;;;;;;6207866;23;20024;-87
2023/11/11 01:47:27;;;;;;;6.85;4.15;;;6.60;99.90;;;;;;6230441;23;20020;-87
2023/11/11 01:49:55;;;;;;;6.13;4.05;;;6.60;99.90;;;;;;6191090;23;20079;-87
2023/11/11 01:52:22;;;;;;;6.78;3.80;;;6.60;99.90;;;;;;6161927;23;20461;-86
2023/11/11 01:54:52;;;;;;;6.25;3.83;;;6.60;99.90;;;;;;6163379;23;20044;-87
2023/11/11 01:57:20;;;;;;;5.82;3.55;;;6.60;99.90;;;;;;6163128;23;20055;-87
2023/11/11 01:59:47;;;;;;;7.38;3.55;;;6.60;99.90;;;;;;6162607;23;20104;-86
2023/11/11 02:02:20;;;;;;;5.38;3.40;;;6.60;99.90;;;;;;6185273;23;20016;-87
2023/11/11 02:04:51;;;;;;;8.55;5.03;;;6.60;99.90;;;;;;6163223;23;20020;-87
2023/11/11 02:07:18;;;;;;;6.53;3.80;;;6.60;99.90;;;;;;6162295;23;20024;-87
2023/11/11 02:09:48;;;;;;;6.30;4.15;;;6.60;99.90;;;;;;6213010;23;20017;-87
2023/11/11 02:12:17;;;;;;;6.45;3.40;;;6.60;99.90;;;;;;6186505;23;20071;-86
2023/11/11 02:14:46;;;;;;;6.65;3.35;;;6.60;99.90;;;;;;6164360;23;20679;-87
2023/11/11 02:17:13;;;;;;;7.40;4.38;;;6.60;99.90;;;;;;6190244;23;20019;-87
2023/11/11 02:19:43;;;;;;;8.57;4.95;;;6.70;99.90;;;;;;6189239;23;20466;-87
2023/11/11 02:22:11;;;;;;;7.55;4.38;;;6.70;99.90;;;;;;6162073;23;20575;-86
2023/11/11 02:24:40;;;;;;;5.72;3.92;;;6.80;99.90;;;;;;6213942;23;20017;-87
2023/11/11 02:27:10;;;;;;;8.50;5.05;;;6.80;99.90;;;;;;6164259;23;20514;-87
2023/11/11 02:29:44;;;;;;;8.13;4.45;;;6.80;99.90;;;;;;6189031;23;20111;-87
2023/11/11 02:32:12;;;;;;;7.10;4.18;;;6.90;99.90;;;;;;6161824;23;20794;-87
2023/11/11 02:34:40;;;;;;;6.00;3.40;;;6.90;99.90;;;;;;6189250;23;20052;-87
2023/11/11 02:37:08;;;;;;;6.72;2.55;;;6.90;99.90;;;;;;6188306;23;20103;-87
2023/11/11 02:39:40;;;;;;;3.70;2.05;;;6.90;99.90;;;;;;6188600;23;20024;-87
2023/11/11 02:42:08;;;;;;;5.85;1.90;;;6.90;99.90;;;;;;6162263;23;20072;-87
2023/11/11 02:44:35;;;;;;;2.88;1.40;;;6.80;99.90;;;;;;6216165;23;20021;-87
2023/11/11 02:47:03;;;;;;;3.42;1.40;;;6.80;99.90;;;;;;6167781;23;20017;-87
2023/11/11 02:49:34;;;;;;;5.15;1.42;;;6.80;99.90;;;;;;6216745;23;20075;-87
2023/11/11 02:52:01;;;;;;;2.85;1.67;;;6.70;99.90;;;;;;6166887;23;20016;-87
2023/11/11 02:54:28;;;;;;;4.72;1.98;;;6.70;99.90;;;;;;6192410;23;20025;-87
2023/11/11 02:56:57;;;;;;;3.00;1.48;;;6.70;99.90;;;;;;6167365;23;20055;-87
2023/11/11 02:59:25;;;;;;;4.68;1.77;;;6.70;99.90;;;;;;6191438;23;20048;-87
2023/11/11 03:01:56;;;;;;;5.47;1.48;;;6.70;99.90;;;;;;6167149;23;20021;-87
2023/11/11 03:04:23;;;;;;;4.45;1.40;;;6.70;99.90;;;;;;6191507;23;20023;-87
2023/11/11 03:06:53;;;;;;;5.15;1.75;;;6.70;99.90;;;;;;6192133;23;20023;-87
2023/11/11 03:09:20;;;;;;;4.35;1.70;;;6.80;99.90;;;;;;6167415;23;20016;-87
2023/11/11 03:11:50;;;;;;;2.35;0.90;;;6.80;99.90;;;;;;6191790;23;20020;-87
2023/11/11 03:14:20;;;;;;;4.18;1.23;;;6.90;99.90;;;;;;6191703;23;20064;-87
2023/11/11 03:16:49;;;;;;;2.45;0.90;;;7.00;99.90;;;;;;6167185;23;20047;-88
2023/11/11 03:19:17;;;;;;;2.55;0.98;;;7.00;99.90;;;;;;6216467;23;20095;-86
2023/11/11 03:21:44;;;;;;;2.55;0.80;;;7.00;99.90;;;;;;6216218;23;20108;-85
2023/11/11 03:24:11;;;;;;;5.07;0.82;;;7.00;99.90;;;;;;6215693;23;20023;-85
2023/11/11 03:26:38;;;;;;;1.80;0.45;;;6.90;99.90;;;;;;6166584;23;20071;-85
2023/11/11 03:29:06;;;;;;;2.42;0.50;;;6.90;99.90;;;;;;6191274;23;20075;-84
2023/11/11 03:31:33;;;;;;;0.82;0.20;;;6.90;99.90;;;;;;6216447;23;20469;-84
2023/11/11 03:34:01;;;;;;;1.52;0.20;;;6.80;99.90;;;;;;6142272;23;20075;-84
2023/11/11 03:36:28;;;;;;;1.38;0.43;;;6.80;99.90;;;;;;6166315;23;20052;-84
2023/11/11 03:38:55;;;;;;;1.52;0.28;;;6.70;99.90;;;;;;6215707;23;20025;-84
2023/11/11 03:41:22;;;;;;;0.85;0.17;;;6.70;99.90;;;;;;6215475;23;20027;-83
2023/11/11 03:43:49;;;;;;;0.65;0.22;;;6.60;99.90;;;;;;6165954;23;20469;-84
2023/11/11 03:46:17;;;;;;;2.08;0.30;;;6.60;99.90;;;;;;6215418;23;20039;-83
2023/11/11 03:48:44;;;;;;;1.60;0.30;;;6.50;99.90;;;;;;6190987;23;20099;-83
2023/11/11 03:51:11;;;;;;;0.82;0.20;;;6.50;99.90;;;;;;6165790;23;20016;-84
2023/11/11 03:53:38;;;;;;;0.90;0.20;;;6.40;99.90;;;;;;6190586;23;20024;-83
2023/11/11 03:56:07;;;;;;;2.85;0.30;;;6.50;99.90;;;;;;6216081;23;20119;-84
2023/11/11 03:58:35;;;;;;;2.30;0.30;;;6.40;99.90;;;;;;6165936;23;20031;-84
2023/11/11 04:01:08;;;;;;;0.50;0.20;;;6.40;99.90;;;;;;6215589;23;20031;-83
2023/11/11 04:03:36;;;;;;;0.75;0.20;;;6.40;99.90;;;;;;6166197;23;20350;-84
2023/11/11 04:06:03;;;;;;;2.08;0.22;;;6.40;99.90;;;;;;6215470;23;20021;-84
2023/11/11 04:08:34;;;;;;;1.55;0.20;;;6.40;99.90;;;;;;6190692;23;20474;-84
2023/11/11 04:11:07;;;;;;;1.40;0.22;;;6.50;99.90;;;;;;6166696;23;20023;-84
2023/11/11 04:13:52;;;;;;;1.08;0.30;;;6.50;99.90;;;;;;6192566;23;20048;-83
2023/11/11 04:16:21;;;;;;;1.65;0.15;;;6.60;99.90;;;;;;6166347;23;20030;-84
2023/11/11 04:18:48;;;;;;;3.00;0.30;;;6.60;99.90;;;;;;6190780;23;20031;-84
2023/11/11 04:21:17;;;;;;;0.22;0.08;;;6.60;99.90;;;;;;6190308;23;20088;-84
2023/11/11 04:23:45;;;;;;;2.20;0.30;;;6.60;99.90;;;;;;6215381;23;20017;-84
2023/11/11 04:26:12;;;;;;;1.05;0.20;;;6.50;99.90;;;;;;6215576;23;20031;-84
2023/11/11 04:28:43;;;;;;;0.30;0.10;;;6.50;99.90;;;;;;6190913;23;20498;-84
2023/11/11 04:31:17;;;;;;;1.27;0.17;;;6.50;99.90;;;;;;6215451;23;20020;-84
2023/11/11 04:33:45;;;;;;;0.73;0.25;;;6.50;99.90;;;;;;6165867;23;20020;-84
2023/11/11 04:36:12;;;;;;;2.28;0.30;;;6.40;99.90;;;;;;6190562;23;20051;-85
2023/11/11 04:38:40;;;;;;;0.70;0.28;;;6.40;99.90;;;;;;6191017;23;20029;-84
2023/11/11 04:41:07;;;;;;;1.00;0.30;;;6.50;99.90;;;;;;6215417;23;20451;-84
2023/11/11 04:43:34;;;;;;;1.08;0.30;;;6.50;99.90;;;;;;6215115;23;20024;-84
2023/11/11 04:46:02;;;;;;;2.88;0.50;;;6.50;99.90;;;;;;6190513;23;20039;-84
2023/11/11 04:48:30;;;;;;;1.90;0.40;;;6.50;99.90;;;;;;6165609;23;20043;-84
2023/11/11 04:50:59;;;;;;;1.17;0.32;;;6.60;99.90;;;;;;6191022;23;20020;-85
2023/11/11 04:53:28;;;;;;;3.47;0.43;;;6.60;99.90;;;;;;6190771;23;20024;-84
2023/11/11 04:55:55;;;;;;;1.83;0.40;;;6.60;99.90;;;;;;6190434;23;20028;-84
2023/11/11 04:58:23;;;;;;;1.20;0.40;;;6.60;99.90;;;;;;6215680;23;20025;-84
2023/11/11 05:00:51;;;;;;;2.35;0.40;;;6.70;99.90;;;;;;6190169;23;20031;-84
2023/11/11 05:03:20;;;;;;;1.25;0.30;;;6.70;99.90;;;;;;6215422;23;20404;-85
2023/11/11 05:05:51;;;;;;;3.03;0.52;;;6.70;99.90;;;;;;6165731;23;20435;-84
2023/11/11 05:08:18;;;;;;;1.77;0.60;;;6.70;99.90;;;;;;6190236;23;20036;-84
2023/11/11 05:10:45;;;;;;;3.60;0.70;;;6.80;99.90;;;;;;6165955;23;20016;-84
2023/11/11 05:13:14;;;;;;;4.80;0.80;;;6.80;99.90;;;;;;6165914;23;20075;-84
2023/11/11 05:15:45;;;;;;;2.35;0.65;;;6.80;99.90;;;;;;6165424;23;20028;-84
2023/11/11 05:18:13;;;;;;;1.08;0.50;;;6.80;99.90;;;;;;6165474;23;20048;-84
2023/11/11 05:20:41;;;;;;;2.40;0.50;;;6.80;99.90;;;;;;6165196;23;20439;-84
2023/11/11 05:23:11;;;;;;;1.70;0.40;;;6.80;99.90;;;;;;6165451;23;20031;-83
2023/11/11 05:25:38;;;;;;;2.65;0.57;;;6.80;99.90;;;;;;6214618;23;20052;-84
2023/11/11 05:28:05;;;;;;;3.15;1.00;;;6.80;99.90;;;;;;6190295;23;20017;-84
2023/11/11 05:30:33;;;;;;;1.48;0.50;;;6.80;99.90;;;;;;6214367;23;20021;-83
2023/11/11 05:33:00;;;;;;;2.03;0.50;;;6.80;99.90;;;;;;6214848;23;20124;-83
2023/11/11 05:35:27;;;;;;;3.90;0.85;;;6.80;99.90;;;;;;6165816;23;20040;-83
2023/11/11 05:37:54;;;;;;;4.40;0.57;;;6.80;99.90;;;;;;6189791;23;20094;-83
2023/11/11 05:40:21;;;;;;;2.03;0.68;;;6.80;99.90;;;;;;6190150;23;20032;-83
2023/11/11 05:42:49;;;;;;;1.70;0.30;;;6.80;99.90;;;;;;6205059;23;20023;-84
2023/11/11 05:45:17;;;;;;;1.77;0.47;;;6.80;99.90;;;;;;6183529;23;20020;-84
2023/11/11 05:47:45;;;;;;;1.05;0.40;;;6.70;99.90;;;;;;6186121;23;20107;-84
2023/11/11 05:50:13;;;;;;;2.33;0.60;;;6.70;99.90;;;;;;6172114;23;20020;-83
2023/11/11 05:52:41;;;;;;;4.53;0.70;;;6.70;99.90;;;;;;6191960;23;20016;-82
2023/11/11 05:55:08;;;;;;;2.08;0.50;;;6.70;99.90;;;;;;6190273;23;20028;-83
2023/11/11 05:57:37;;;;;;;3.38;0.52;;;6.70;99.90;;;;;;6165489;23;20024;-83
2023/11/11 06:00:10;;;;;;;1.67;0.52;;;6.60;99.90;;;;;;6165077;23;20455;-83
2023/11/11 06:02:38;;;;;;;1.25;0.82;;;6.60;99.90;;;;;;6215321;23;20028;-83
2023/11/11 06:05:05;;;;;;;2.20;0.65;;;6.60;99.90;;;;;;6214656;23;20021;-83
2023/11/11 06:07:32;;;;;;;1.70;0.57;;;6.70;99.90;;;;;;6189720;23;20447;-84
2023/11/11 06:10:00;;;;;;;1.50;0.52;;;6.70;99.90;;;;;;6165174;23;20017;-83
2023/11/11 06:12:27;;;;;;;4.90;1.25;;;6.70;99.90;;;;;;6189321;23;20044;-83
2023/11/11 06:14:54;;;;;;;2.13;1.00;;;6.70;99.90;;;;;;6189594;23;20056;-83
2023/11/11 06:17:21;;;;;;;1.98;0.70;;;6.70;99.90;;;;;;6214117;23;20024;-82
2023/11/11 06:19:48;;;;;;;0.95;0.38;;;6.70;99.90;;;;;;6189218;23;20443;-83
2023/11/11 06:22:15;;;;;;;3.35;0.50;;;6.70;99.90;;;;;;6164413;23;20135;-82
2023/11/11 06:24:42;;;;;;;3.63;0.45;;;6.60;99.90;;;;;;6214602;23;20023;-82
2023/11/11 06:27:09;;;;;;;0.50;0.20;;;6.60;99.90;;;;;;6189322;23;20514;-82
2023/11/11 06:29:37;;;;;;;2.88;0.30;;;6.60;99.90;;;;;;6189722;23;20451;-84
2023/11/11 06:32:04;;;;;;;1.38;0.20;;;6.60;99.90;;;;;;6165008;23;20016;-82
2023/11/11 06:34:31;;;;;;;2.30;0.30;;;6.50;99.90;;;;;;6214335;23;20100;-84
2023/11/11 06:36:58;;;;;;;2.85;0.40;;;6.50;99.90;;;;;;6214446;23;20032;-83
2023/11/11 06:39:30;;;;;;;1.80;0.52;;;6.40;99.90;;;;;;6189731;23;20025;-82
2023/11/11 06:41:57;;;;;;;1.63;0.45;;;6.40;99.90;;;;;;6188956;23;20419;-82
2023/11/11 06:44:24;;;;;;;4.07;0.57;;;6.50;99.90;;;;;;6214149;23;20023;-83
2023/11/11 06:46:51;;;;;;;3.55;0.50;;;6.50;99.90;;;;;;6189473;23;20347;-83
2023/11/11 06:49:19;;;;;;;1.08;0.40;;;6.50;99.90;;;;;;6164562;23;20027;-83
2023/11/11 06:51:46;;;;;;;1.48;0.55;;;6.50;99.90;;;;;;6189234;23;20439;-83
2023/11/11 06:54:13;;;;;;;2.22;0.57;;;6.60;99.90;;;;;;6189538;23;20016;-83
2023/11/11 06:56:42;;;;;;;1.77;0.40;;;6.60;99.90;;;;;;6165484;23;20020;-83
2023/11/11 06:59:09;;;;;;;2.85;0.80;;;6.60;99.90;;;;;;6166480;23;20021;-83
2023/11/11 07:01:39;;;;;;;3.75;0.70;;;6.60;99.90;;;;;;6191212;23;20020;-83
2023/11/11 07:04:07;;;;;;;2.90;0.65;;;6.60;99.90;;;;;;6191077;23;20063;-83
2023/11/11 07:06:35;;;;;;;1.83;0.60;;;6.50;99.90;;;;;;6166770;23;20459;-83
2023/11/11 07:09:02;;;;;;;1.83;0.50;;;6.60;99.90;;;;;;6166589;23;20016;-83
2023/11/11 07:11:29;;;;;;;1.90;0.68;;;6.50;99.90;;;;;;6191027;23;20020;-83
2023/11/11 07:13:56;;;;;;;1.58;0.35;;;6.50;99.90;;;;;;6191070;23;20052;-83
2023/11/11 07:16:23;;;;;;;2.25;0.60;;;6.40;99.90;;;;;;6166259;23;20021;-83
2023/11/11 07:18:50;;;;;;;0.95;0.32;;;6.40;99.90;;;;;;6191294;23;20399;-83
2023/11/11 07:21:24;;;;;;;2.10;0.47;;;6.40;99.90;;;;;;6190830;23;20105;-83
2023/11/11 07:23:52;;;;;;;1.02;0.50;;;6.30;99.90;;;;;;6166339;23;20021;-83
2023/11/11 07:26:20;;;;;;;2.50;0.50;;;6.30;99.90;;;;;;6216294;23;20021;-83
2023/11/11 07:28:48;;;;;;;2.78;0.80;;;6.30;99.90;;;;;;6190991;23;20027;-83
2023/11/11 07:31:17;;;;;;;1.10;0.60;;;6.30;99.90;;;;;;6166521;23;20013;-83
2023/11/11 07:33:45;;;;;;;1.92;0.90;;;6.30;99.90;;;;;;6166650;23;20071;-83
2023/11/11 07:36:12;;;;;;;2.00;0.88;;;6.30;99.90;;;;;;6190535;23;20016;-83
2023/11/11 07:38:41;;;;;;;2.53;0.85;;;6.30;99.90;;;;;;6191068;23;20020;-83
2023/11/11 07:41:10;;;;;;;2.67;0.75;;;6.30;99.90;;;;;;6166176;23;20071;-83
2023/11/11 07:43:38;;;;;;;1.58;0.80;;;6.30;99.90;;;;;;6166053;23;20027;-83
2023/11/11 07:46:05;;;;;;;1.83;0.50;;;6.20;99.90;;;;;;6165995;23;20321;-83
2023/11/11 07:48:34;;;;;;;2.33;0.70;;;6.20;99.90;;;;;;6215351;23;20103;-82
2023/11/11 07:51:04;;;;;;;2.15;0.55;;;6.10;99.90;;;;;;6165893;23;20100;-83
2023/11/11 07:53:32;;;;;;;1.10;0.40;;;6.10;99.90;;;;;;6191541;23;20379;-83
2023/11/11 07:56:02;;;;;;;3.78;0.55;;;6.10;99.90;;;;;;6191060;23;20435;-83
2023/11/11 07:58:30;;;;;;;0.82;0.35;;;6.10;99.90;;;;;;6215739;23;20100;-83
2023/11/11 08:01:03;;;;;;;1.08;0.40;;;6.10;99.90;;;;;;6166367;23;20020;-83
2023/11/11 08:03:32;;;;;;;1.42;0.40;;;6.10;99.90;;;;;;6190344;23;20095;-83
2023/11/11 08:05:59;;;;;;;1.33;0.30;;;6.10;99.90;;;;;;6190647;23;20339;-83
2023/11/11 08:08:29;;;;;;;1.45;0.40;;;6.10;99.90;;;;;;6190198;23;20095;-83
2023/11/11 08:10:56;;;;;;;1.45;0.40;;;6.20;99.90;;;;;;6190492;23;20406;-83
2023/11/11 08:13:23;;;;;;;1.02;0.50;;;6.20;99.90;;;;;;6165527;23;20016;-83
2023/11/11 08:15:51;;;;;;;1.58;0.50;;;6.20;99.90;;;;;;6141418;23;20016;-84
2023/11/11 08:18:21;;;;;;;1.30;0.50;;;6.30;99.90;;;;;;6190761;23;20024;-84
2023/11/11 08:20:54;;;;;;;0.90;0.40;;;6.30;99.90;;;;;;6167616;23;20398;-84
2023/11/11 08:23:22;;;;;;;2.67;0.43;;;6.40;99.90;;;;;;6216123;23;20021;-84
2023/11/11 08:25:49;;;;;;;0.73;0.20;;;6.50;99.90;;;;;;6215505;23;20027;-84
2023/11/11 08:28:16;;;;;;;1.42;0.50;;;6.60;99.90;;;;;;6166066;23;20019;-84
2023/11/11 08:30:43;;;;;;;1.35;0.30;;;6.60;99.90;;;;;;6215666;23;20067;-84
2023/11/11 08:33:10;;;;;;;2.13;0.30;;;6.70;99.90;;;;;;6166490;23;20056;-85
2023/11/11 08:35:37;;;;;;;3.63;0.40;;;6.80;99.90;;;;;;6166451;23;20052;-84
2023/11/11 08:38:05;;;;;;;3.97;0.50;;;6.80;99.90;;;;;;6190698;23;20020;-84
2023/11/11 08:40:32;;;;;;;1.50;0.50;;;6.80;99.90;;;;;;6166329;23;20025;-84
2023/11/11 08:42:59;;;;;;;1.00;0.38;;;7.00;99.90;;;;;;6165608;23;20024;-85
2023/11/11 08:45:27;;;;;;;6.07;0.50;;;7.10;99.90;;;;;;6190415;23;20475;-85
2023/11/11 08:47:55;;;;;;;1.50;0.50;;;7.20;99.90;;;;;;6166414;23;20099;-86
2023/11/11 08:50:22;;;;;;;2.70;0.50;;;7.20;99.90;;;;;;6190843;23;20027;-85
2023/11/11 08:52:49;;;;;;;1.25;0.40;;;7.30;99.90;;;;;;6190961;23;20016;-85
2023/11/11 08:55:18;;;;;;;2.30;0.60;;;7.30;99.90;;;;;;6190752;23;20021;-84
2023/11/11 08:57:45;;;;;;;0.90;0.30;;;7.20;99.90;;;;;;6190288;23;20024;-85
2023/11/11 09:00:15;;;;;;;1.48;0.40;;;7.20;99.90;;;;;;6215719;23;20407;-85
2023/11/11 09:02:43;;;;;;;1.95;0.30;;;7.20;99.90;;;;;;6190864;23;20048;-85
2023/11/11 09:05:10;;;;;;;1.10;0.40;;;7.30;99.90;;;;;;6215253;23;20131;-85
2023/11/11 09:07:37;;;;;;;0.85;0.20;;;7.40;99.90;;;;;;6166080;23;20048;-85
2023/11/11 09:10:11;;;;;;;0.93;0.32;;;7.50;99.90;;;;;;6190713;23;20017;-85
2023/11/11 09:12:39;;;;;;;0.93;0.25;;;7.60;99.80;;;;;;6190824;23;20020;-85
2023/11/11 09:15:08;;;;;;;1.58;0.30;;;7.60;99.70;;;;;;6215657;23;20028;-85
2023/11/11 09:17:37;;;;;;;1.27;0.40;;;7.60;99.60;;;;;;6166001;23;20016;-85
2023/11/11 09:20:09;;;;;;;1.75;0.40;;;7.60;99.60;;;;;;6165399;23;20439;-84
2023/11/11 09:22:37;;;;;;;3.38;0.40;;;7.60;99.60;;;;;;6190278;23;20021;-87
2023/11/11 09:25:07;;;;;;;1.20;0.30;;;7.70;99.60;;;;;;6191295;23;20498;-85
2023/11/11 09:27:34;;;;;;;1.40;0.60;;;7.70;99.60;;;;;;6190721;23;20435;-85
2023/11/11 09:30:22;;;;;;;;;;;;;;;;;;;;;
2023/11/11 09:33:25;;;;;;;4.03;0.50;;;7.80;99.50;;;;;;6216081;23;20092;-89
2023/11/11 09:37:09;;;;;;;1.75;0.40;;;8.00;99.40;;;;;;6089531;23;20093;-90
2023/11/11 09:44:49;;;;;;;;;;;;;;;;;;;;;
2023/11/11 09:51:56;;;;;;;2.17;0.40;;;7.80;99.40;;;;;;5943297;23;20136;-89
2023/11/11 09:54:40;;;;;;;1.55;0.68;;;7.70;99.60;;;;;;6017850;23;20024;-84
2023/11/11 09:57:15;;;;;;;1.70;0.50;;;7.60;99.60;;;;;;6125288;23;20483;-86
2023/11/11 09:59:55;;;;;;;3.13;0.70;;;7.50;99.70;;;;;;6190735;23;20472;-85
2023/11/11 10:02:26;;;;;;;1.92;0.70;;;7.40;99.80;;;;;;6166104;23;20025;-85
2023/11/11 10:05:03;;;;;;;2.33;0.95;;;7.30;99.90;;;;;;6166226;23;20088;-86
2023/11/11 10:08:43;;;;;;;;;;;;;;;;;;;;;
2023/11/11 10:11:57;;;;;;;2.47;0.73;;;7.30;99.90;;;;;;6215266;23;20021;-91
2023/11/11 10:14:29;;;;;;;3.72;1.40;;;7.40;99.90;;;;;;6190928;23;20470;-85
2023/11/11 10:16:58;;;;;;;4.28;1.92;;;7.40;99.90;;;;;;6190610;23;20020;-87
2023/11/11 10:19:29;;;;;;;4.70;2.00;;;7.40;99.90;;;;;;6214273;23;20028;-85
2023/11/11 10:21:57;;;;;;;4.03;1.90;;;7.40;99.90;;;;;;6165536;23;20530;-81
2023/11/11 10:24:25;;;;;;;8.63;3.35;;;7.50;99.90;;;;;;6164178;23;20016;-82
2023/11/11 10:26:56;;;;;;;5.13;3.05;;;7.60;99.90;;;;;;6164697;23;20021;-82
2023/11/11 10:29:23;;;;;;;9.55;3.85;;;7.70;99.90;;;;;;6164190;23;20020;-84
2023/11/11 10:31:53;;;;;;;6.85;3.47;;;7.80;99.90;;;;;;6167308;23;20024;-85
2023/11/11 10:34:24;;;;;;;6.25;3.20;;;7.80;99.90;;;;;;6216351;23;20052;-88
2023/11/11 10:37:02;;;;;;;7.57;3.58;;;7.90;99.90;;;;;;6168852;23;20021;-87
2023/11/11 10:39:34;;;;;;;8.80;4.75;;;7.90;99.90;;;;;;6167077;23;20079;-88
2023/11/11 10:42:03;;;;;;;9.15;3.17;;;8.00;99.90;;;;;;6191725;23;20021;-82
2023/11/11 10:44:52;;;;;;;8.50;3.35;;;7.90;99.90;;;;;;6186090;23;20017;-89
2023/11/11 10:47:20;;;;;;;5.97;3.30;;;8.00;99.90;;;;;;6162827;23;20100;-84
2023/11/11 10:50:13;;;;;;;5.75;3.40;;;8.00;99.80;;;;;;6138090;23;20028;-88
2023/11/11 10:52:43;;;;;;;7.93;3.60;;;8.00;99.80;;;;;;6162556;23;20017;-87
2023/11/11 10:55:13;;;;;;;8.13;3.55;;;8.00;99.90;;;;;;6186588;23;20387;-84
2023/11/11 10:57:42;;;;;;;8.20;3.50;;;8.00;99.70;;;;;;6186595;23;20032;-86
2023/11/11 11:00:19;;;;;;;8.73;3.35;;;8.00;99.70;;;;;;6211812;23;20072;-86
2023/11/11 11:02:51;;;;;;;9.40;2.85;;;8.00;99.60;;;;;;6162520;23;20029;-84
2023/11/11 11:05:42;;;;;;;6.20;3.20;;;8.10;99.50;;;;;;6186124;23;20452;-85
2023/11/11 11:08:52;;;;;;;5.93;3.10;;;8.10;99.50;;;;;;6186179;23;20020;-84
2023/11/11 11:11:39;;;;;;;7.45;3.15;;;8.30;99.30;;;;;;6117212;23;20013;-84
2023/11/11 11:14:15;;;;;;;9.57;3.35;;;8.40;99.20;;;;;;6186857;23;20498;-85
2023/11/11 11:16:43;;;;;;;8.60;3.42;;;8.40;99.00;;;;;;6211329;23;20023;-84
2023/11/11 11:19:17;;;;;;;8.18;3.20;;;8.40;98.90;;;;;;6210915;23;20025;-85
2023/11/11 11:21:46;;;;;;;5.90;2.80;;;8.30;98.90;;;;;;6211543;23;20325;-87
2023/11/11 11:24:37;;;;;;;6.30;3.08;;;8.30;99.00;;;;;;6164491;23;20021;-86
2023/11/11 11:27:11;;;;;;;5.45;2.83;;;8.40;99.10;;;;;;6210729;23;20013;-87
2023/11/11 11:29:40;;;;;;;5.45;2.38;;;8.40;99.10;;;;;;6162407;23;20044;-86
2023/11/11 11:32:11;;;;;;;7.70;3.05;;;8.50;99.00;;;;;;6186348;23;20108;-84
2023/11/11 11:35:27;;;;;;;10.63;2.30;;;8.60;99.00;;;;;;6162248;23;20124;-84
2023/11/11 11:37:54;;;;;;;3.95;2.00;;;8.60;98.90;;;;;;6186090;23;20021;-87
2023/11/11 11:40:24;;;;;;;4.80;2.17;;;8.70;98.80;;;;;;6161570;23;20017;-88
2023/11/11 11:43:10;;;;;;;6.65;1.98;;;8.70;98.60;;;;;;6211283;23;20522;-87
2023/11/11 11:45:38;;;;;;;8.40;2.33;;;8.70;98.60;;;;;;6137990;23;20029;-88
2023/11/11 11:48:14;;;;;;;6.68;2.03;;;8.60;98.60;;;;;;6186556;23;20020;-86
2023/11/11 11:50:41;;;;;;;6.18;2.28;;;8.60;98.60;;;;;;6211614;23;20072;-88
2023/11/11 11:53:13;;;;;;;5.28;2.17;;;8.60;98.60;;;;;;6211351;23;20021;-87
2023/11/11 11:55:40;;;;;;;7.15;2.45;;;8.60;98.50;;;;;;6211367;23;20107;-87
2023/11/11 11:58:10;;;;;;;4.95;1.30;;;8.60;98.50;;;;;;6186796;23;20100;-87
2023/11/11 12:00:38;;;;;;;5.57;1.52;;;8.70;98.40;;;;;;6161779;23;20021;-88
2023/11/11 12:03:06;;;;;;;6.28;1.67;;;8.70;98.30;;;;;;6186845;23;20469;-84
2023/11/11 12:05:34;;;;;;;4.90;1.25;;;8.80;98.30;;;;;;6186014;23;20017;-84
2023/11/11 12:08:04;;;;;;;4.45;1.08;;;8.80;98.20;;;;;;6185950;23;20021;-87
2023/11/11 12:10:54;;;;;;;2.05;0.70;;;8.90;98.10;;;;;;6186594;23;20013;-87
2023/11/11 12:13:38;;;;;;;2.50;0.70;;;8.90;98.00;;;;;;6161692;23;20013;-87
2023/11/11 12:16:12;;;;;;;2.80;0.60;;;8.80;98.00;;;;;;6188177;23;20041;-88
2023/11/11 12:18:41;;;;;;;3.30;0.55;;;8.80;97.80;;;;;;6186028;23;20025;-85
2023/11/11 12:21:08;;;;;;;4.28;0.70;;;8.80;97.70;;;;;;6161957;23;20024;-85
2023/11/11 12:23:37;;;;;;;2.75;0.68;;;8.80;97.60;;;;;;6161498;23;20021;-88
2023/11/11 12:26:16;;;;;;;2.92;0.75;;;8.90;97.60;;;;;;6162615;23;20025;-88
2023/11/11 12:29:14;;;;;;;1.63;0.50;;;8.90;97.30;;;;;;6209520;23;20024;-88
2023/11/11 12:33:09;;;;;;;2.35;0.60;;;8.90;97.30;;;;;;6082474;23;20025;-88
2023/11/11 12:36:05;;;;;;;4.60;0.70;;;8.80;97.30;;;;;;6102098;23;20040;-87
2023/11/11 12:42:58;;;;;;;2.47;0.93;;;8.80;97.20;;;;;;6033602;23;20091;-89
2023/11/11 12:45:46;;;;;;;;;;;;;;;;;;;;;
2023/11/11 12:49:37;;;;;;;2.50;0.80;;;8.90;97.30;;;;;;5953889;24;20580;-89
2023/11/11 12:52:39;;;;;;;3.08;0.80;;;8.90;97.30;;;;;;6007872;23;20065;-86
2023/11/11 12:55:29;;;;;;;2.13;0.77;;;8.90;97.40;;;;;;6071803;23;20022;-88
2023/11/11 12:58:51;;;;;;;;;;;;;;;;;;;;;
2023/11/11 13:05:38;;;;;;;2.15;0.93;;;9.10;97.30;;;;;;5980971;24;20032;-89
2023/11/11 13:12:06;;;;;;;2.47;0.90;;;9.30;97.10;;;;;;5903732;24;20582;-89
2023/11/11 13:14:53;;;;;;;2.45;0.95;;;9.50;97.00;;;;;;6006130;23;20027;-88
2023/11/11 13:19:09;;;;;;;4.40;1.25;;;9.60;96.70;;;;;;5997352;23;20038;-90
2023/11/11 13:21:38;;;;;;;2.40;0.80;;;9.80;96.40;;;;;;5986583;23;20037;-90
2023/11/11 13:30:00;;;;;;;;;;;;;;;;;;;;;
2023/11/11 13:32:44;;;;;;;3.20;0.82;;;10.00;95.60;;;;;;5986209;23;20028;-88
2023/11/11 13:35:16;;;;;;;5.97;1.00;;;10.00;95.60;;;;;;6073304;23;20017;-84
2023/11/11 13:37:46;;;;;;;7.78;0.70;;;9.90;95.30;;;;;;6131872;23;20056;-85
2023/11/11 13:40:28;;;;;;;2.75;0.80;;;9.70;95.10;;;;;;6209980;23;20019;-90
2023/11/11 13:42:55;;;;;;;1.77;0.73;;;9.50;95.60;;;;;;6149374;23;20388;-80
2023/11/11 13:45:24;;;;;;;2.72;0.43;;;9.40;96.00;;;;;;6208302;23;20021;-80
2023/11/11 13:47:55;;;;;;;3.33;0.75;;;9.30;96.00;;;;;;6172361;23;20020;-80
2023/11/11 13:50:25;;;;;;;2.72;0.40;;;9.30;96.00;;;;;;6192026;23;20019;-90
2023/11/11 13:52:56;;;;;;;3.42;0.50;;;9.20;96.00;;;;;;6190022;23;20426;-80
2023/11/11 13:55:23;;;;;;;2.42;0.40;;;9.20;96.20;;;;;;6165265;23;20494;-81